sensor_id;sensor_type;location;lat;lon;timestamp;P1;durP1;ratioP1;P2;durP2;ratioP2
7021;SDS011;3552;42.664;23.406;2022-12-10T00:01:04;34.73;;;11.27;;
7021;SDS011;3552;42.664;23.406;2022-12-10T00:03:32;29.53;;;10.90;;
7021;SDS011;3552;42.664;23.406;2022-12-10T00:06:00;30.53;;;11.27;;
7021;SDS011;3552;42.664;23.406;2022-12-10T00:08:27;20.63;;;10.07;;
7021;SDS011;3552;42.664;23.406;2022-12-10T00:10:56;20.83;;;10.00;;
7021;SDS011;3552;42.664;23.406;2022-12-10T00:13:23;23.60;;;9.60;;
7021;SDS011;3552;42.664;23.406;2022-12-10T00:15:50;34.00;;;9.90;;
7021;SDS011;3552;42.664;23.406;2022-12-10T00:18:18;26.20;;;9.83;;
7021;SDS011;3552;42.664;23.406;2022-12-10T00:20:45;26.43;;;9.30;;
7021;SDS011;3552;42.664;23.406;2022-12-10T00:23:12;21.83;;;9.40;;
7021;SDS011;3552;42.664;23.406;2022-12-10T00:25:39;24.43;;;10.97;;
7021;SDS011;3552;42.664;23.406;2022-12-10T00:28:07;21.90;;;9.33;;
7021;SDS011;3552;42.664;23.406;2022-12-10T00:30:34;28.20;;;10.10;;
7021;SDS011;3552;42.664;23.406;2022-12-10T00:33:01;28.07;;;10.83;;
7021;SDS011;3552;42.664;23.406;2022-12-10T00:35:28;21.33;;;10.00;;
7021;SDS011;3552;42.664;23.406;2022-12-10T00:37:56;23.17;;;10.63;;
7021;SDS011;3552;42.664;23.406;2022-12-10T00:40:23;28.23;;;9.50;;
7021;SDS011;3552;42.664;23.406;2022-12-10T00:42:49;20.43;;;10.30;;
7021;SDS011;3552;42.664;23.406;2022-12-10T00:45:20;20.23;;;9.80;;
7021;SDS011;3552;42.664;23.406;2022-12-10T00:47:46;28.57;;;12.33;;
7021;SDS011;3552;42.664;23.406;2022-12-10T00:50:14;31.23;;;12.27;;
7021;SDS011;3552;42.664;23.406;2022-12-10T00:52:42;23.67;;;8.87;;
7021;SDS011;3552;42.664;23.406;2022-12-10T00:55:09;20.63;;;9.30;;
7021;SDS011;3552;42.664;23.406;2022-12-10T00:57:36;28.83;;;9.20;;
7021;SDS011;3552;42.664;23.406;2022-12-10T01:00:03;20.10;;;9.20;;
7021;SDS011;3552;42.664;23.406;2022-12-10T01:02:33;22.33;;;8.63;;
7021;SDS011;3552;42.664;23.406;2022-12-10T01:04:59;23.43;;;9.10;;
7021;SDS011;3552;42.664;23.406;2022-12-10T01:07:28;30.23;;;8.63;;
7021;SDS011;3552;42.664;23.406;2022-12-10T01:09:56;23.97;;;8.83;;
7021;SDS011;3552;42.664;23.406;2022-12-10T01:12:23;24.17;;;9.67;;
7021;SDS011;3552;42.664;23.406;2022-12-10T01:14:49;24.13;;;9.27;;
7021;SDS011;3552;42.664;23.406;2022-12-10T01:17:16;23.80;;;8.40;;
7021;SDS011;3552;42.664;23.406;2022-12-10T01:19:45;21.30;;;8.53;;
7021;SDS011;3552;42.664;23.406;2022-12-10T01:22:12;21.10;;;8.60;;
7021;SDS011;3552;42.664;23.406;2022-12-10T01:24:39;23.70;;;8.50;;
7021;SDS011;3552;42.664;23.406;2022-12-10T01:27:05;19.90;;;7.63;;
7021;SDS011;3552;42.664;23.406;2022-12-10T01:29:32;16.37;;;8.50;;
7021;SDS011;3552;42.664;23.406;2022-12-10T01:31:59;22.17;;;8.83;;
7021;SDS011;3552;42.664;23.406;2022-12-10T01:34:26;21.77;;;8.10;;
7021;SDS011;3552;42.664;23.406;2022-12-10T01:36:55;20.13;;;8.57;;
7021;SDS011;3552;42.664;23.406;2022-12-10T01:39:22;22.93;;;8.27;;
7021;SDS011;3552;42.664;23.406;2022-12-10T01:41:50;20.70;;;8.50;;
7021;SDS011;3552;42.664;23.406;2022-12-10T01:47:24;15.63;;;7.47;;
7021;SDS011;3552;42.664;23.406;2022-12-10T01:49:51;20.40;;;7.70;;
7021;SDS011;3552;42.664;23.406;2022-12-10T01:52:20;18.47;;;7.57;;
7021;SDS011;3552;42.664;23.406;2022-12-10T01:54:47;23.27;;;7.47;;
7021;SDS011;3552;42.664;23.406;2022-12-10T01:57:14;23.30;;;7.93;;
7021;SDS011;3552;42.664;23.406;2022-12-10T01:59:44;13.90;;;6.60;;
7021;SDS011;3552;42.664;23.406;2022-12-10T02:02:24;17.83;;;6.90;;
7021;SDS011;3552;42.664;23.406;2022-12-10T02:05:04;17.30;;;7.00;;
7021;SDS011;3552;42.664;23.406;2022-12-10T02:07:46;21.33;;;7.87;;
7021;SDS011;3552;42.664;23.406;2022-12-10T02:10:23;20.63;;;7.50;;
7021;SDS011;3552;42.664;23.406;2022-12-10T02:13:04;16.97;;;7.60;;
7021;SDS011;3552;42.664;23.406;2022-12-10T02:15:35;16.83;;;7.60;;
7021;SDS011;3552;42.664;23.406;2022-12-10T02:18:07;22.00;;;7.77;;
7021;SDS011;3552;42.664;23.406;2022-12-10T02:20:38;24.10;;;9.10;;
7021;SDS011;3552;42.664;23.406;2022-12-10T02:23:10;21.83;;;8.00;;
7021;SDS011;3552;42.664;23.406;2022-12-10T02:25:41;17.90;;;8.07;;
7021;SDS011;3552;42.664;23.406;2022-12-10T02:28:13;20.17;;;7.53;;
7021;SDS011;3552;42.664;23.406;2022-12-10T02:30:47;14.37;;;6.93;;
7021;SDS011;3552;42.664;23.406;2022-12-10T02:33:17;21.17;;;7.63;;
7021;SDS011;3552;42.664;23.406;2022-12-10T02:35:48;18.33;;;7.33;;
7021;SDS011;3552;42.664;23.406;2022-12-10T02:38:18;14.10;;;6.23;;
7021;SDS011;3552;42.664;23.406;2022-12-10T02:40:52;17.33;;;7.33;;
7021;SDS011;3552;42.664;23.406;2022-12-10T02:43:23;18.20;;;7.30;;
7021;SDS011;3552;42.664;23.406;2022-12-10T02:45:55;11.97;;;7.60;;
7021;SDS011;3552;42.664;23.406;2022-12-10T02:48:23;19.93;;;7.07;;
7021;SDS011;3552;42.664;23.406;2022-12-10T02:50:51;19.43;;;7.50;;
7021;SDS011;3552;42.664;23.406;2022-12-10T02:53:18;15.37;;;7.10;;
7021;SDS011;3552;42.664;23.406;2022-12-10T02:55:49;23.33;;;7.03;;
7021;SDS011;3552;42.664;23.406;2022-12-10T02:58:41;20.13;;;7.47;;
7021;SDS011;3552;42.664;23.406;2022-12-10T03:01:22;16.37;;;7.20;;
7021;SDS011;3552;42.664;23.406;2022-12-10T03:03:59;13.67;;;7.07;;
7021;SDS011;3552;42.664;23.406;2022-12-10T03:06:31;17.57;;;7.43;;
7021;SDS011;3552;42.664;23.406;2022-12-10T03:09:03;17.23;;;7.30;;
7021;SDS011;3552;42.664;23.406;2022-12-10T03:11:33;17.07;;;7.03;;
7021;SDS011;3552;42.664;23.406;2022-12-10T03:14:02;18.03;;;7.17;;
7021;SDS011;3552;42.664;23.406;2022-12-10T03:16:35;17.87;;;6.83;;
7021;SDS011;3552;42.664;23.406;2022-12-10T03:19:06;20.17;;;7.07;;
7021;SDS011;3552;42.664;23.406;2022-12-10T03:21:37;11.67;;;6.67;;
7021;SDS011;3552;42.664;23.406;2022-12-10T03:24:05;15.60;;;6.30;;
7021;SDS011;3552;42.664;23.406;2022-12-10T03:26:33;17.37;;;7.47;;
7021;SDS011;3552;42.664;23.406;2022-12-10T03:29:01;11.30;;;6.73;;
7021;SDS011;3552;42.664;23.406;2022-12-10T03:31:31;15.60;;;6.97;;
7021;SDS011;3552;42.664;23.406;2022-12-10T03:34:02;21.13;;;7.97;;
7021;SDS011;3552;42.664;23.406;2022-12-10T03:36:30;17.53;;;7.77;;
7021;SDS011;3552;42.664;23.406;2022-12-10T03:39:00;20.27;;;7.53;;
7021;SDS011;3552;42.664;23.406;2022-12-10T03:41:27;18.33;;;6.73;;
7021;SDS011;3552;42.664;23.406;2022-12-10T03:43:55;15.50;;;6.30;;
7021;SDS011;3552;42.664;23.406;2022-12-10T03:46:23;12.73;;;6.60;;
7021;SDS011;3552;42.664;23.406;2022-12-10T03:48:53;15.50;;;6.67;;
7021;SDS011;3552;42.664;23.406;2022-12-10T03:51:20;13.00;;;6.00;;
7021;SDS011;3552;42.664;23.406;2022-12-10T03:53:47;16.37;;;6.40;;
7021;SDS011;3552;42.664;23.406;2022-12-10T03:56:15;13.03;;;5.63;;
7021;SDS011;3552;42.664;23.406;2022-12-10T03:58:43;14.53;;;6.00;;
7021;SDS011;3552;42.664;23.406;2022-12-10T04:01:10;16.73;;;6.23;;
7021;SDS011;3552;42.664;23.406;2022-12-10T04:03:38;13.20;;;5.73;;
7021;SDS011;3552;42.664;23.406;2022-12-10T04:06:09;15.47;;;6.43;;
7021;SDS011;3552;42.664;23.406;2022-12-10T04:08:42;15.53;;;6.10;;
7021;SDS011;3552;42.664;23.406;2022-12-10T04:11:09;17.47;;;6.37;;
7021;SDS011;3552;42.664;23.406;2022-12-10T04:13:37;14.07;;;6.17;;
7021;SDS011;3552;42.664;23.406;2022-12-10T04:16:23;14.63;;;6.00;;
7021;SDS011;3552;42.664;23.406;2022-12-10T04:18:54;15.37;;;6.07;;
7021;SDS011;3552;42.664;23.406;2022-12-10T04:21:23;16.50;;;6.40;;
7021;SDS011;3552;42.664;23.406;2022-12-10T04:24:08;13.90;;;5.70;;
7021;SDS011;3552;42.664;23.406;2022-12-10T04:26:52;13.07;;;6.80;;
7021;SDS011;3552;42.664;23.406;2022-12-10T04:29:20;15.00;;;7.37;;
7021;SDS011;3552;42.664;23.406;2022-12-10T04:31:48;15.60;;;9.43;;
7021;SDS011;3552;42.664;23.406;2022-12-10T04:34:15;14.50;;;6.80;;
7021;SDS011;3552;42.664;23.406;2022-12-10T04:36:43;13.17;;;6.50;;
7021;SDS011;3552;42.664;23.406;2022-12-10T04:39:10;14.43;;;6.07;;
7021;SDS011;3552;42.664;23.406;2022-12-10T04:41:39;13.00;;;6.67;;
7021;SDS011;3552;42.664;23.406;2022-12-10T04:44:07;15.13;;;5.80;;
7021;SDS011;3552;42.664;23.406;2022-12-10T04:46:34;11.97;;;5.70;;
7021;SDS011;3552;42.664;23.406;2022-12-10T04:49:03;15.37;;;5.80;;
7021;SDS011;3552;42.664;23.406;2022-12-10T04:51:31;10.90;;;5.30;;
7021;SDS011;3552;42.664;23.406;2022-12-10T04:54:00;15.03;;;6.37;;
7021;SDS011;3552;42.664;23.406;2022-12-10T04:56:27;13.37;;;5.53;;
7021;SDS011;3552;42.664;23.406;2022-12-10T04:58:55;20.23;;;5.77;;
7021;SDS011;3552;42.664;23.406;2022-12-10T05:01:22;12.33;;;5.90;;
7021;SDS011;3552;42.664;23.406;2022-12-10T05:03:49;13.23;;;5.90;;
7021;SDS011;3552;42.664;23.406;2022-12-10T05:06:17;15.87;;;6.07;;
7021;SDS011;3552;42.664;23.406;2022-12-10T05:08:45;13.23;;;6.40;;
7021;SDS011;3552;42.664;23.406;2022-12-10T05:11:15;18.60;;;7.30;;
7021;SDS011;3552;42.664;23.406;2022-12-10T05:13:43;17.43;;;8.60;;
7021;SDS011;3552;42.664;23.406;2022-12-10T05:16:11;19.50;;;7.63;;
7021;SDS011;3552;42.664;23.406;2022-12-10T05:18:40;16.17;;;6.73;;
7021;SDS011;3552;42.664;23.406;2022-12-10T05:21:08;17.57;;;7.10;;
7021;SDS011;3552;42.664;23.406;2022-12-10T05:23:38;14.33;;;6.80;;
7021;SDS011;3552;42.664;23.406;2022-12-10T05:26:08;18.07;;;8.40;;
7021;SDS011;3552;42.664;23.406;2022-12-10T05:28:40;25.20;;;8.27;;
7021;SDS011;3552;42.664;23.406;2022-12-10T05:31:11;24.03;;;8.43;;
7021;SDS011;3552;42.664;23.406;2022-12-10T05:33:38;25.87;;;8.33;;
7021;SDS011;3552;42.664;23.406;2022-12-10T05:36:05;17.70;;;7.93;;
7021;SDS011;3552;42.664;23.406;2022-12-10T05:38:33;21.77;;;7.73;;
7021;SDS011;3552;42.664;23.406;2022-12-10T05:41:01;14.57;;;7.33;;
7021;SDS011;3552;42.664;23.406;2022-12-10T05:43:29;14.47;;;7.27;;
7021;SDS011;3552;42.664;23.406;2022-12-10T05:46:00;14.40;;;7.03;;
7021;SDS011;3552;42.664;23.406;2022-12-10T05:48:27;13.63;;;7.30;;
7021;SDS011;3552;42.664;23.406;2022-12-10T05:50:54;27.37;;;12.57;;
7021;SDS011;3552;42.664;23.406;2022-12-10T05:53:21;16.20;;;8.03;;
7021;SDS011;3552;42.664;23.406;2022-12-10T05:55:49;16.77;;;8.80;;
7021;SDS011;3552;42.664;23.406;2022-12-10T05:58:16;25.97;;;11.33;;
7021;SDS011;3552;42.664;23.406;2022-12-10T06:00:43;18.40;;;10.17;;
7021;SDS011;3552;42.664;23.406;2022-12-10T06:03:12;17.60;;;9.40;;
7021;SDS011;3552;42.664;23.406;2022-12-10T06:05:39;17.63;;;9.27;;
7021;SDS011;3552;42.664;23.406;2022-12-10T06:08:07;18.00;;;9.63;;
7021;SDS011;3552;42.664;23.406;2022-12-10T06:10:34;18.47;;;7.90;;
7021;SDS011;3552;42.664;23.406;2022-12-10T06:13:01;11.40;;;6.90;;
7021;SDS011;3552;42.664;23.406;2022-12-10T06:15:29;16.17;;;6.83;;
7021;SDS011;3552;42.664;23.406;2022-12-10T06:17:57;15.67;;;6.97;;
7021;SDS011;3552;42.664;23.406;2022-12-10T06:20:27;21.03;;;8.20;;
7021;SDS011;3552;42.664;23.406;2022-12-10T06:22:59;20.20;;;9.83;;
7021;SDS011;3552;42.664;23.406;2022-12-10T06:25:28;19.53;;;10.73;;
7021;SDS011;3552;42.664;23.406;2022-12-10T06:27:56;18.83;;;9.53;;
7021;SDS011;3552;42.664;23.406;2022-12-10T06:30:26;13.77;;;8.77;;
7021;SDS011;3552;42.664;23.406;2022-12-10T06:32:54;16.00;;;8.20;;
7021;SDS011;3552;42.664;23.406;2022-12-10T06:35:22;14.63;;;8.40;;
7021;SDS011;3552;42.664;23.406;2022-12-10T06:37:51;18.00;;;9.63;;
7021;SDS011;3552;42.664;23.406;2022-12-10T06:40:18;19.93;;;9.43;;
7021;SDS011;3552;42.664;23.406;2022-12-10T06:42:45;19.43;;;9.03;;
7021;SDS011;3552;42.664;23.406;2022-12-10T06:45:12;22.27;;;9.63;;
7021;SDS011;3552;42.664;23.406;2022-12-10T06:47:39;17.40;;;9.50;;
7021;SDS011;3552;42.664;23.406;2022-12-10T06:50:07;26.23;;;9.97;;
7021;SDS011;3552;42.664;23.406;2022-12-10T06:52:34;22.33;;;9.80;;
7021;SDS011;3552;42.664;23.406;2022-12-10T06:55:03;30.70;;;13.20;;
7021;SDS011;3552;42.664;23.406;2022-12-10T06:57:31;47.53;;;23.40;;
7021;SDS011;3552;42.664;23.406;2022-12-10T06:59:58;28.87;;;15.73;;
7021;SDS011;3552;42.664;23.406;2022-12-10T07:02:25;31.50;;;14.77;;
7021;SDS011;3552;42.664;23.406;2022-12-10T07:04:52;30.10;;;15.37;;
7021;SDS011;3552;42.664;23.406;2022-12-10T07:07:21;40.73;;;23.80;;
7021;SDS011;3552;42.664;23.406;2022-12-10T07:09:48;37.17;;;19.33;;
7021;SDS011;3552;42.664;23.406;2022-12-10T07:12:18;30.83;;;16.00;;
7021;SDS011;3552;42.664;23.406;2022-12-10T07:14:45;30.60;;;14.43;;
7021;SDS011;3552;42.664;23.406;2022-12-10T07:17:12;34.53;;;17.27;;
7021;SDS011;3552;42.664;23.406;2022-12-10T07:19:39;20.80;;;12.53;;
7021;SDS011;3552;42.664;23.406;2022-12-10T07:22:06;21.07;;;11.43;;
7021;SDS011;3552;42.664;23.406;2022-12-10T07:24:33;23.60;;;11.63;;
7021;SDS011;3552;42.664;23.406;2022-12-10T07:27:04;24.47;;;13.20;;
7021;SDS011;3552;42.664;23.406;2022-12-10T07:29:33;27.43;;;12.40;;
7021;SDS011;3552;42.664;23.406;2022-12-10T07:32:00;21.60;;;13.03;;
7021;SDS011;3552;42.664;23.406;2022-12-10T07:34:28;27.67;;;15.07;;
7021;SDS011;3552;42.664;23.406;2022-12-10T07:36:57;25.80;;;14.63;;
7021;SDS011;3552;42.664;23.406;2022-12-10T07:39:27;28.30;;;14.87;;
7021;SDS011;3552;42.664;23.406;2022-12-10T07:41:57;32.10;;;13.83;;
7021;SDS011;3552;42.664;23.406;2022-12-10T07:44:24;25.10;;;13.83;;
7021;SDS011;3552;42.664;23.406;2022-12-10T07:46:53;25.83;;;13.27;;
7021;SDS011;3552;42.664;23.406;2022-12-10T07:49:21;25.00;;;13.50;;
7021;SDS011;3552;42.664;23.406;2022-12-10T07:51:48;40.10;;;18.90;;
7021;SDS011;3552;42.664;23.406;2022-12-10T07:54:18;39.47;;;18.80;;
7021;SDS011;3552;42.664;23.406;2022-12-10T07:56:45;28.50;;;14.13;;
7021;SDS011;3552;42.664;23.406;2022-12-10T07:59:13;31.33;;;14.30;;
7021;SDS011;3552;42.664;23.406;2022-12-10T08:01:40;26.60;;;12.67;;
7021;SDS011;3552;42.664;23.406;2022-12-10T08:04:09;22.20;;;12.47;;
7021;SDS011;3552;42.664;23.406;2022-12-10T08:06:36;26.77;;;12.40;;
7021;SDS011;3552;42.664;23.406;2022-12-10T08:09:03;20.43;;;13.40;;
7021;SDS011;3552;42.664;23.406;2022-12-10T08:11:31;23.93;;;13.43;;
7021;SDS011;3552;42.664;23.406;2022-12-10T08:14:00;25.07;;;13.33;;
7021;SDS011;3552;42.664;23.406;2022-12-10T08:16:29;22.60;;;12.40;;
7021;SDS011;3552;42.664;23.406;2022-12-10T08:18:56;24.27;;;13.73;;
7021;SDS011;3552;42.664;23.406;2022-12-10T08:21:26;23.37;;;12.60;;
7021;SDS011;3552;42.664;23.406;2022-12-10T08:23:55;20.13;;;12.00;;
7021;SDS011;3552;42.664;23.406;2022-12-10T08:26:22;27.47;;;12.67;;
7021;SDS011;3552;42.664;23.406;2022-12-10T08:28:51;27.30;;;13.57;;
7021;SDS011;3552;42.664;23.406;2022-12-10T08:31:20;20.63;;;11.40;;
7021;SDS011;3552;42.664;23.406;2022-12-10T08:33:49;26.97;;;12.97;;
7021;SDS011;3552;42.664;23.406;2022-12-10T08:36:18;29.97;;;16.30;;
7021;SDS011;3552;42.664;23.406;2022-12-10T08:38:50;29.60;;;15.87;;
7021;SDS011;3552;42.664;23.406;2022-12-10T08:41:18;30.60;;;14.77;;
7021;SDS011;3552;42.664;23.406;2022-12-10T08:43:47;30.33;;;14.83;;
7021;SDS011;3552;42.664;23.406;2022-12-10T08:46:15;24.40;;;12.57;;
7021;SDS011;3552;42.664;23.406;2022-12-10T08:48:42;30.87;;;13.20;;
7021;SDS011;3552;42.664;23.406;2022-12-10T08:51:10;26.23;;;13.70;;
7021;SDS011;3552;42.664;23.406;2022-12-10T08:53:40;28.87;;;13.33;;
7021;SDS011;3552;42.664;23.406;2022-12-10T08:56:09;25.30;;;14.60;;
7021;SDS011;3552;42.664;23.406;2022-12-10T08:58:37;32.07;;;16.57;;
7021;SDS011;3552;42.664;23.406;2022-12-10T09:01:05;33.33;;;18.77;;
7021;SDS011;3552;42.664;23.406;2022-12-10T09:03:33;33.40;;;21.33;;
7021;SDS011;3552;42.664;23.406;2022-12-10T09:06:01;35.27;;;20.53;;
7021;SDS011;3552;42.664;23.406;2022-12-10T09:08:30;48.50;;;28.40;;
7021;SDS011;3552;42.664;23.406;2022-12-10T09:10:57;45.67;;;28.03;;
7021;SDS011;3552;42.664;23.406;2022-12-10T09:13:26;39.43;;;25.30;;
7021;SDS011;3552;42.664;23.406;2022-12-10T09:15:52;36.67;;;23.30;;
7021;SDS011;3552;42.664;23.406;2022-12-10T09:18:19;37.40;;;23.07;;
7021;SDS011;3552;42.664;23.406;2022-12-10T09:20:47;40.00;;;21.70;;
7021;SDS011;3552;42.664;23.406;2022-12-10T09:23:15;36.10;;;21.57;;
7021;SDS011;3552;42.664;23.406;2022-12-10T09:25:43;36.93;;;20.17;;
7021;SDS011;3552;42.664;23.406;2022-12-10T09:28:11;35.00;;;19.27;;
7021;SDS011;3552;42.664;23.406;2022-12-10T09:30:40;31.40;;;18.03;;
7021;SDS011;3552;42.664;23.406;2022-12-10T09:33:07;27.67;;;17.33;;
7021;SDS011;3552;42.664;23.406;2022-12-10T09:35:34;27.47;;;16.03;;
7021;SDS011;3552;42.664;23.406;2022-12-10T09:38:02;32.33;;;16.60;;
7021;SDS011;3552;42.664;23.406;2022-12-10T09:40:30;29.30;;;15.40;;
7021;SDS011;3552;42.664;23.406;2022-12-10T09:43:04;26.80;;;14.57;;
7021;SDS011;3552;42.664;23.406;2022-12-10T09:45:42;22.17;;;13.63;;
7021;SDS011;3552;42.664;23.406;2022-12-10T09:48:16;24.67;;;13.30;;
7021;SDS011;3552;42.664;23.406;2022-12-10T09:50:50;18.57;;;12.77;;
7021;SDS011;3552;42.664;23.406;2022-12-10T09:53:22;21.87;;;12.43;;
7021;SDS011;3552;42.664;23.406;2022-12-10T09:55:50;19.70;;;10.23;;
7021;SDS011;3552;42.664;23.406;2022-12-10T09:58:18;19.37;;;10.87;;
7021;SDS011;3552;42.664;23.406;2022-12-10T10:00:49;22.47;;;11.00;;
7021;SDS011;3552;42.664;23.406;2022-12-10T10:03:20;20.90;;;11.67;;
7021;SDS011;3552;42.664;23.406;2022-12-10T10:05:48;19.73;;;11.90;;
7021;SDS011;3552;42.664;23.406;2022-12-10T10:08:18;20.80;;;11.47;;
7021;SDS011;3552;42.664;23.406;2022-12-10T10:10:52;23.53;;;12.77;;
7021;SDS011;3552;42.664;23.406;2022-12-10T10:13:21;23.00;;;12.00;;
7021;SDS011;3552;42.664;23.406;2022-12-10T10:15:59;22.90;;;12.37;;
7021;SDS011;3552;42.664;23.406;2022-12-10T10:18:39;24.40;;;12.57;;
7021;SDS011;3552;42.664;23.406;2022-12-10T10:21:11;20.27;;;10.63;;
7021;SDS011;3552;42.664;23.406;2022-12-10T10:23:47;19.37;;;9.30;;
7021;SDS011;3552;42.664;23.406;2022-12-10T10:26:15;19.40;;;10.30;;
7021;SDS011;3552;42.664;23.406;2022-12-10T10:28:42;19.73;;;10.90;;
7021;SDS011;3552;42.664;23.406;2022-12-10T10:31:18;19.53;;;11.03;;
7021;SDS011;3552;42.664;23.406;2022-12-10T10:33:49;18.13;;;10.67;;
7021;SDS011;3552;42.664;23.406;2022-12-10T10:36:23;19.53;;;11.20;;
7021;SDS011;3552;42.664;23.406;2022-12-10T10:38:53;20.77;;;11.20;;
7021;SDS011;3552;42.664;23.406;2022-12-10T10:41:20;25.00;;;11.87;;
7021;SDS011;3552;42.664;23.406;2022-12-10T10:43:51;19.47;;;11.83;;
7021;SDS011;3552;42.664;23.406;2022-12-10T10:46:28;16.30;;;10.80;;
7021;SDS011;3552;42.664;23.406;2022-12-10T10:49:12;19.37;;;11.37;;
7021;SDS011;3552;42.664;23.406;2022-12-10T10:51:42;25.93;;;12.30;;
7021;SDS011;3552;42.664;23.406;2022-12-10T10:54:10;17.70;;;10.27;;
7021;SDS011;3552;42.664;23.406;2022-12-10T10:56:56;17.90;;;10.70;;
7021;SDS011;3552;42.664;23.406;2022-12-10T10:59:27;17.73;;;10.63;;
7021;SDS011;3552;42.664;23.406;2022-12-10T11:01:59;17.50;;;9.97;;
7021;SDS011;3552;42.664;23.406;2022-12-10T11:04:30;19.27;;;10.50;;
7021;SDS011;3552;42.664;23.406;2022-12-10T11:07:04;21.93;;;10.43;;
7021;SDS011;3552;42.664;23.406;2022-12-10T11:09:38;20.33;;;10.40;;
7021;SDS011;3552;42.664;23.406;2022-12-10T11:12:06;19.57;;;10.30;;
7021;SDS011;3552;42.664;23.406;2022-12-10T11:14:48;13.23;;;7.20;;
7021;SDS011;3552;42.664;23.406;2022-12-10T11:17:18;13.57;;;7.33;;
7021;SDS011;3552;42.664;23.406;2022-12-10T11:19:53;9.87;;;6.37;;
7021;SDS011;3552;42.664;23.406;2022-12-10T11:22:24;14.27;;;6.10;;
7021;SDS011;3552;42.664;23.406;2022-12-10T11:24:52;11.07;;;6.53;;
7021;SDS011;3552;42.664;23.406;2022-12-10T11:27:23;8.73;;;4.90;;
7021;SDS011;3552;42.664;23.406;2022-12-10T11:30:00;7.93;;;4.60;;
7021;SDS011;3552;42.664;23.406;2022-12-10T11:35:34;12.43;;;4.83;;
7021;SDS011;3552;42.664;23.406;2022-12-10T11:38:09;8.20;;;4.40;;
7021;SDS011;3552;42.664;23.406;2022-12-10T11:40:48;8.67;;;5.13;;
7021;SDS011;3552;42.664;23.406;2022-12-10T11:43:20;8.97;;;4.67;;
7021;SDS011;3552;42.664;23.406;2022-12-10T11:46:10;13.13;;;5.70;;
7021;SDS011;3552;42.664;23.406;2022-12-10T11:51:43;12.37;;;7.37;;
7021;SDS011;3552;42.664;23.406;2022-12-10T11:54:22;13.27;;;7.03;;
7021;SDS011;3552;42.664;23.406;2022-12-10T11:57:01;11.70;;;6.27;;
7021;SDS011;3552;42.664;23.406;2022-12-10T11:59:34;11.43;;;5.60;;
7021;SDS011;3552;42.664;23.406;2022-12-10T12:05:10;10.47;;;7.23;;
7021;SDS011;3552;42.664;23.406;2022-12-10T12:07:56;13.43;;;7.13;;
7021;SDS011;3552;42.664;23.406;2022-12-10T12:13:31;20.63;;;8.00;;
7021;SDS011;3552;42.664;23.406;2022-12-10T12:16:04;15.93;;;6.20;;
7021;SDS011;3552;42.664;23.406;2022-12-10T12:18:39;9.87;;;5.90;;
7021;SDS011;3552;42.664;23.406;2022-12-10T12:21:13;13.23;;;6.10;;
7021;SDS011;3552;42.664;23.406;2022-12-10T12:23:43;13.43;;;6.70;;
7021;SDS011;3552;42.664;23.406;2022-12-10T12:26:17;17.50;;;6.53;;
7021;SDS011;3552;42.664;23.406;2022-12-10T12:28:51;11.93;;;6.47;;
7021;SDS011;3552;42.664;23.406;2022-12-10T12:31:25;13.40;;;6.17;;
7021;SDS011;3552;42.664;23.406;2022-12-10T12:33:59;8.37;;;5.83;;
7021;SDS011;3552;42.664;23.406;2022-12-10T12:36:30;13.73;;;6.03;;
7021;SDS011;3552;42.664;23.406;2022-12-10T12:39:05;19.33;;;7.00;;
7021;SDS011;3552;42.664;23.406;2022-12-10T12:41:41;16.60;;;8.30;;
7021;SDS011;3552;42.664;23.406;2022-12-10T12:44:18;17.13;;;8.27;;
7021;SDS011;3552;42.664;23.406;2022-12-10T12:46:50;16.63;;;8.50;;
7021;SDS011;3552;42.664;23.406;2022-12-10T12:49:19;14.87;;;7.10;;
7021;SDS011;3552;42.664;23.406;2022-12-10T12:51:54;13.10;;;8.27;;
7021;SDS011;3552;42.664;23.406;2022-12-10T12:54:26;19.13;;;11.00;;
7021;SDS011;3552;42.664;23.406;2022-12-10T12:56:58;14.87;;;9.87;;
7021;SDS011;3552;42.664;23.406;2022-12-10T12:59:34;16.60;;;10.07;;
7021;SDS011;3552;42.664;23.406;2022-12-10T13:02:14;22.23;;;9.87;;
7021;SDS011;3552;42.664;23.406;2022-12-10T13:04:48;12.90;;;8.40;;
7021;SDS011;3552;42.664;23.406;2022-12-10T13:07:31;16.10;;;8.53;;
7021;SDS011;3552;42.664;23.406;2022-12-10T13:13:05;32.80;;;13.43;;
7021;SDS011;3552;42.664;23.406;2022-12-10T13:15:47;16.60;;;8.43;;
7021;SDS011;3552;42.664;23.406;2022-12-10T13:18:34;16.97;;;7.93;;
7021;SDS011;3552;42.664;23.406;2022-12-10T13:24:05;15.23;;;8.07;;
7021;SDS011;3552;42.664;23.406;2022-12-10T13:26:34;15.73;;;8.00;;
7021;SDS011;3552;42.664;23.406;2022-12-10T13:29:11;16.67;;;7.37;;
7021;SDS011;3552;42.664;23.406;2022-12-10T13:31:54;16.03;;;7.70;;
7021;SDS011;3552;42.664;23.406;2022-12-10T13:34:29;18.53;;;8.63;;
7021;SDS011;3552;42.664;23.406;2022-12-10T13:37:06;21.00;;;8.70;;
7021;SDS011;3552;42.664;23.406;2022-12-10T13:39:47;17.63;;;8.67;;
7021;SDS011;3552;42.664;23.406;2022-12-10T13:42:26;33.03;;;18.53;;
7021;SDS011;3552;42.664;23.406;2022-12-10T13:48:18;22.87;;;8.40;;
7021;SDS011;3552;42.664;23.406;2022-12-10T13:50:55;15.37;;;6.70;;
7021;SDS011;3552;42.664;23.406;2022-12-10T13:53:41;12.37;;;6.43;;
7021;SDS011;3552;42.664;23.406;2022-12-10T13:56:29;12.27;;;6.27;;
7021;SDS011;3552;42.664;23.406;2022-12-10T13:59:13;17.47;;;7.83;;
7021;SDS011;3552;42.664;23.406;2022-12-10T14:01:55;14.97;;;8.13;;
7021;SDS011;3552;42.664;23.406;2022-12-10T14:04:39;14.60;;;7.93;;
7021;SDS011;3552;42.664;23.406;2022-12-10T14:07:17;16.67;;;8.07;;
7021;SDS011;3552;42.664;23.406;2022-12-10T14:09:46;16.90;;;8.30;;
7021;SDS011;3552;42.664;23.406;2022-12-10T14:12:18;19.60;;;9.30;;
7021;SDS011;3552;42.664;23.406;2022-12-10T14:14:52;16.43;;;8.80;;
7021;SDS011;3552;42.664;23.406;2022-12-10T14:17:24;17.87;;;10.00;;
7021;SDS011;3552;42.664;23.406;2022-12-10T14:19:57;17.30;;;8.70;;
7021;SDS011;3552;42.664;23.406;2022-12-10T14:22:29;17.07;;;8.70;;
7021;SDS011;3552;42.664;23.406;2022-12-10T14:24:58;21.33;;;9.57;;
7021;SDS011;3552;42.664;23.406;2022-12-10T14:27:30;15.93;;;8.27;;
7021;SDS011;3552;42.664;23.406;2022-12-10T14:30:00;16.23;;;8.63;;
7021;SDS011;3552;42.664;23.406;2022-12-10T14:32:30;18.83;;;8.37;;
7021;SDS011;3552;42.664;23.406;2022-12-10T14:35:00;17.07;;;8.73;;
7021;SDS011;3552;42.664;23.406;2022-12-10T14:37:31;20.33;;;9.20;;
7021;SDS011;3552;42.664;23.406;2022-12-10T14:40:01;18.50;;;9.60;;
7021;SDS011;3552;42.664;23.406;2022-12-10T14:42:33;26.83;;;9.30;;
7021;SDS011;3552;42.664;23.406;2022-12-10T14:45:06;20.33;;;9.70;;
7021;SDS011;3552;42.664;23.406;2022-12-10T14:47:36;17.73;;;9.73;;
7021;SDS011;3552;42.664;23.406;2022-12-10T14:50:06;17.27;;;9.00;;
7021;SDS011;3552;42.664;23.406;2022-12-10T14:52:40;23.50;;;10.10;;
7021;SDS011;3552;42.664;23.406;2022-12-10T14:55:13;20.47;;;10.43;;
7021;SDS011;3552;42.664;23.406;2022-12-10T14:57:43;36.37;;;14.77;;
7021;SDS011;3552;42.664;23.406;2022-12-10T15:00:15;35.23;;;14.10;;
7021;SDS011;3552;42.664;23.406;2022-12-10T15:02:44;25.60;;;10.60;;
7021;SDS011;3552;42.664;23.406;2022-12-10T15:05:17;15.37;;;7.63;;
7021;SDS011;3552;42.664;23.406;2022-12-10T15:07:48;10.73;;;4.87;;
7021;SDS011;3552;42.664;23.406;2022-12-10T15:10:23;9.30;;;3.70;;
7021;SDS011;3552;42.664;23.406;2022-12-10T15:12:56;11.27;;;4.30;;
7021;SDS011;3552;42.664;23.406;2022-12-10T15:15:24;6.60;;;4.10;;
7021;SDS011;3552;42.664;23.406;2022-12-10T15:17:58;5.53;;;3.90;;
7021;SDS011;3552;42.664;23.406;2022-12-10T15:20:27;11.27;;;4.33;;
7021;SDS011;3552;42.664;23.406;2022-12-10T15:23:06;7.97;;;4.23;;
7021;SDS011;3552;42.664;23.406;2022-12-10T15:25:41;9.57;;;4.73;;
7021;SDS011;3552;42.664;23.406;2022-12-10T15:28:22;12.07;;;5.47;;